createdAt,value
2019-05-07T00:01:11.759Z,6.60
2019-05-07T00:03:42.185Z,5.97
2019-05-07T00:06:12.386Z,5.40
2019-05-07T00:08:44.698Z,6.77
2019-05-07T00:11:12.861Z,6.17
2019-05-07T00:13:44.127Z,6.53
2019-05-07T00:16:12.950Z,6.20
2019-05-07T00:18:42.912Z,6.30
2019-05-07T00:21:12.668Z,6.80
2019-05-07T00:23:43.270Z,5.27
2019-05-07T00:26:13.220Z,6.40
2019-05-07T00:28:43.423Z,5.90
2019-05-07T00:31:12.558Z,5.70
2019-05-07T00:33:43.263Z,5.20
2019-05-07T00:36:32.374Z,5.33
2019-05-07T00:39:19.137Z,5.13
2019-05-07T00:41:57.880Z,5.60
2019-05-07T00:44:26.914Z,5.33
2019-05-07T00:46:55.920Z,6.40
2019-05-07T00:49:26.745Z,7.10
2019-05-07T00:51:55.747Z,6.33
2019-05-07T00:54:24.794Z,5.53
2019-05-07T00:56:54.691Z,6.22
2019-05-07T00:59:24.733Z,5.78
2019-05-07T01:01:54.723Z,5.95
2019-05-07T01:04:24.753Z,5.75
2019-05-07T01:06:54.727Z,5.60
2019-05-07T01:09:24.685Z,5.80
2019-05-07T01:11:54.665Z,6.22
2019-05-07T01:14:24.731Z,7.35
2019-05-07T01:16:54.695Z,6.08
2019-05-07T01:19:24.767Z,5.78
2019-05-07T01:21:54.731Z,5.70
2019-05-07T01:24:24.772Z,5.80
2019-05-07T01:26:53.817Z,6.27
2019-05-07T01:29:23.190Z,6.30
2019-05-07T01:31:58.331Z,6.13
2019-05-07T01:34:52.488Z,6.33
2019-05-07T01:37:23.096Z,6.20
2019-05-07T01:39:52.909Z,5.43
2019-05-07T01:42:22.323Z,5.57
2019-05-07T01:44:52.820Z,6.80
2019-05-07T01:47:23.785Z,6.03
2019-05-07T01:49:55.121Z,5.80
2019-05-07T01:52:24.003Z,6.20
2019-05-07T01:54:53.313Z,7.13
2019-05-07T01:57:23.175Z,6.83
2019-05-07T01:59:52.906Z,7.00
2019-05-07T02:02:36.013Z,6.40
2019-05-07T02:05:33.406Z,6.37
2019-05-07T02:08:04.889Z,6.77
2019-05-07T02:10:44.731Z,5.90
2019-05-07T02:13:13.732Z,5.57
2019-05-07T02:15:56.592Z,7.30
2019-05-07T02:18:13.546Z,8.10
2019-05-07T02:20:42.741Z,5.57
2019-05-07T02:23:12.831Z,6.00
2019-05-07T02:25:42.155Z,7.60
2019-05-07T02:28:12.846Z,6.23
2019-05-07T02:30:44.380Z,5.77
2019-05-07T02:33:13.823Z,6.40
2019-05-07T02:35:44.013Z,5.80
2019-05-07T02:38:23.029Z,5.90
2019-05-07T02:41:02.705Z,6.00
2019-05-07T02:43:33.469Z,5.53
2019-05-07T02:46:22.355Z,6.30
2019-05-07T02:48:45.920Z,6.62
2019-05-07T02:51:24.419Z,4.83
2019-05-07T02:54:13.405Z,5.30
2019-05-07T02:56:43.377Z,6.03
2019-05-07T02:59:13.766Z,6.70
2019-05-07T03:01:43.412Z,5.73
2019-05-07T03:04:13.055Z,5.67
2019-05-07T03:06:44.166Z,6.87
2019-05-07T03:09:14.555Z,5.77
2019-05-07T03:11:43.723Z,5.83
2019-05-07T03:14:14.010Z,6.40
2019-05-07T03:16:48.911Z,5.50
2019-05-07T03:19:14.787Z,5.60
2019-05-07T03:21:56.736Z,5.40
2019-05-07T03:24:52.959Z,5.93
2019-05-07T03:27:23.448Z,6.53
2019-05-07T03:30:04.331Z,5.87
2019-05-07T03:32:46.951Z,5.63
2019-05-07T03:35:38.113Z,5.03
2019-05-07T03:38:07.348Z,5.93
2019-05-07T03:40:37.308Z,5.73
2019-05-07T03:43:06.622Z,6.50
2019-05-07T03:45:54.158Z,5.70
2019-05-07T03:48:24.949Z,6.17
2019-05-07T03:50:54.010Z,5.13
2019-05-07T03:53:23.597Z,4.97
2019-05-07T03:55:53.808Z,5.40
2019-05-07T03:58:23.867Z,5.80
2019-05-07T04:00:53.742Z,6.13
2019-05-07T04:03:24.529Z,5.57
2019-05-07T04:05:53.880Z,4.90
2019-05-07T04:08:23.881Z,6.22
2019-05-07T04:10:53.982Z,5.83
2019-05-07T04:13:24.250Z,6.23
2019-05-07T04:15:53.454Z,5.60
2019-05-07T04:18:23.818Z,7.07
2019-05-07T04:20:54.052Z,5.60
2019-05-07T04:23:23.711Z,6.50
2019-05-07T04:26:19.102Z,6.43
2019-05-07T04:29:05.594Z,6.07
2019-05-07T04:31:37.100Z,6.10
2019-05-07T04:34:13.397Z,6.40
2019-05-07T04:36:45.669Z,6.10
2019-05-07T04:39:14.701Z,5.90
2019-05-07T04:41:43.788Z,5.80
2019-05-07T04:44:14.032Z,6.63
2019-05-07T04:46:47.771Z,5.30
2019-05-07T04:49:14.217Z,5.77
2019-05-07T04:51:55.208Z,6.03
2019-05-07T04:54:24.143Z,5.87
2019-05-07T04:56:53.388Z,5.07
2019-05-07T04:59:23.768Z,5.50
2019-05-07T05:01:59.676Z,5.13
2019-05-07T05:04:31.508Z,5.63
2019-05-07T05:07:01.998Z,6.10
2019-05-07T05:09:32.936Z,4.60
2019-05-07T05:12:02.699Z,5.93
2019-05-07T05:14:33.723Z,6.03
2019-05-07T05:17:03.092Z,5.17
2019-05-07T05:19:32.452Z,4.70
2019-05-07T05:22:26.508Z,5.17
2019-05-07T05:25:32.266Z,5.08
2019-05-07T05:28:02.020Z,5.17
2019-05-07T05:30:38.133Z,4.90
2019-05-07T05:33:07.176Z,5.57
2019-05-07T05:35:36.508Z,5.03
2019-05-07T05:38:06.053Z,4.90
2019-05-07T05:40:35.072Z,5.13
2019-05-07T05:43:13.925Z,4.67
2019-05-07T05:45:44.257Z,5.20
2019-05-07T05:48:13.759Z,5.27
2019-05-07T05:51:05.030Z,5.47
2019-05-07T05:53:53.022Z,5.50
2019-05-07T05:56:28.255Z,6.50
2019-05-07T05:59:37.061Z,6.07
2019-05-07T06:02:22.786Z,4.72
2019-05-07T06:05:12.607Z,4.43
2019-05-07T06:07:47.558Z,4.40
2019-05-07T06:10:38.496Z,4.20
2019-05-07T06:13:23.084Z,5.37
2019-05-07T06:16:08.544Z,4.93
2019-05-07T06:18:44.862Z,5.30
2019-05-07T06:21:24.339Z,5.23
2019-05-07T06:23:56.269Z,5.47
2019-05-07T06:26:25.346Z,5.50
2019-05-07T06:28:54.721Z,4.87
2019-05-07T06:31:23.772Z,4.60
2019-05-07T06:33:52.781Z,4.57
2019-05-07T06:36:22.077Z,4.70
2019-05-07T06:38:57.855Z,5.73
2019-05-07T06:41:44.825Z,5.77
2019-05-07T06:44:18.125Z,5.77
2019-05-07T06:46:47.176Z,6.20
2019-05-07T06:49:16.199Z,5.87
2019-05-07T06:51:47.758Z,5.37
2019-05-07T06:54:15.997Z,5.00
2019-05-07T06:56:45.424Z,5.70
2019-05-07T06:59:23.261Z,4.70
2019-05-07T07:02:22.568Z,5.10
2019-05-07T07:04:57.860Z,5.87
2019-05-07T07:07:36.575Z,5.63
2019-05-07T07:10:22.649Z,6.20
2019-05-07T07:12:53.075Z,5.47
2019-05-07T07:15:23.179Z,6.20
2019-05-07T07:17:52.632Z,6.00
2019-05-07T07:20:21.947Z,5.90
2019-05-07T07:22:52.057Z,6.53
2019-05-07T07:25:22.958Z,5.60
2019-05-07T07:27:52.179Z,5.73
2019-05-07T07:30:42.030Z,6.47
2019-05-07T07:33:12.184Z,5.80
2019-05-07T07:35:42.853Z,6.07
2019-05-07T07:38:30.222Z,5.77
2019-05-07T07:41:18.225Z,5.00
2019-05-07T07:43:47.269Z,5.13
2019-05-07T07:46:16.717Z,6.07
2019-05-07T07:48:45.882Z,5.50
2019-05-07T07:51:15.005Z,5.25
2019-05-07T07:53:44.124Z,5.03
2019-05-07T07:56:49.042Z,4.70
2019-05-07T07:59:22.031Z,6.63
2019-05-07T08:02:02.918Z,6.00
2019-05-07T08:04:32.174Z,6.83
2019-05-07T08:07:04.494Z,7.00
2019-05-07T08:09:34.939Z,6.03
2019-05-07T08:12:04.616Z,5.50
2019-05-07T08:14:33.680Z,5.70
2019-05-07T08:17:04.617Z,5.40
2019-05-07T08:19:33.678Z,5.20
2019-05-07T08:22:03.174Z,5.90
2019-05-07T08:24:32.393Z,6.27
2019-05-07T08:27:02.381Z,5.70
2019-05-07T08:29:32.535Z,6.50
2019-05-07T08:32:22.122Z,5.57
2019-05-07T08:34:55.471Z,5.60
2019-05-07T08:37:24.640Z,5.40
2019-05-07T08:39:53.675Z,5.33
2019-05-07T08:42:22.992Z,5.70
2019-05-07T08:45:00.034Z,6.00
2019-05-07T08:47:35.784Z,6.20
2019-05-07T08:50:05.169Z,5.30
2019-05-07T08:52:34.181Z,5.93
2019-05-07T08:55:03.229Z,5.57
2019-05-07T08:57:32.238Z,4.03
2019-05-07T09:00:04.541Z,4.43
2019-05-07T09:02:32.702Z,5.63
2019-05-07T09:05:03.001Z,7.07
2019-05-07T09:12:53.848Z,5.33
2019-05-07T09:15:23.058Z,5.83
2019-05-07T09:17:52.708Z,5.83
2019-05-07T09:20:22.851Z,7.47
2019-05-07T09:22:52.030Z,5.63
2019-05-07T09:25:22.253Z,4.63
2019-05-07T09:27:52.780Z,5.12
2019-05-07T09:30:56.584Z,5.73
2019-05-07T09:33:35.260Z,5.30
2019-05-07T09:36:05.449Z,5.30
2019-05-07T09:38:34.463Z,5.40
2019-05-07T09:41:03.474Z,5.37
2019-05-07T09:43:32.841Z,4.93
2019-05-07T09:46:02.724Z,4.80
2019-05-07T09:48:33.836Z,4.70
2019-05-07T09:51:02.692Z,4.60
2019-05-07T09:53:32.127Z,4.70
2019-05-07T09:56:02.130Z,4.47
2019-05-07T09:58:36.730Z,5.07
2019-05-07T10:01:02.474Z,3.60
2019-05-07T10:03:32.420Z,4.33
2019-05-07T10:06:02.409Z,3.90
2019-05-07T10:08:32.258Z,5.60
2019-05-07T10:11:02.730Z,3.90
2019-05-07T10:13:42.571Z,3.50
2019-05-07T10:16:13.037Z,3.92
2019-05-07T10:18:42.721Z,5.10
2019-05-07T10:21:12.758Z,5.53
2019-05-07T10:23:42.055Z,4.93
2019-05-07T10:26:12.154Z,4.20
2019-05-07T10:28:42.495Z,4.10
2019-05-07T10:31:11.647Z,4.60
2019-05-07T10:33:42.189Z,4.03
2019-05-07T10:36:12.507Z,4.40
2019-05-07T10:38:41.643Z,5.00
2019-05-07T10:41:12.131Z,5.93
2019-05-07T10:43:42.849Z,5.10
2019-05-07T10:46:31.931Z,5.50
2019-05-07T10:49:14.433Z,4.47
2019-05-07T10:51:43.474Z,3.93
2019-05-07T10:54:12.694Z,5.50
2019-05-07T10:56:41.979Z,5.70
2019-05-07T10:59:12.186Z,5.40
2019-05-07T11:01:46.865Z,6.03
2019-05-07T11:04:15.914Z,5.00
2019-05-07T11:06:44.916Z,5.10
2019-05-07T11:09:13.979Z,5.60
2019-05-07T11:11:42.991Z,4.97
2019-05-07T11:14:12.352Z,5.50
2019-05-07T11:16:52.165Z,4.70
2019-05-07T11:19:22.094Z,4.90
2019-05-07T11:21:52.133Z,4.33
2019-05-07T11:24:21.353Z,3.97
2019-05-07T11:26:50.457Z,4.70
2019-05-07T11:29:19.487Z,4.80
2019-05-07T11:31:48.852Z,5.40
2019-05-07T11:34:17.903Z,5.37
2019-05-07T11:36:46.969Z,4.70
2019-05-07T11:39:15.978Z,4.20
2019-05-07T11:42:08.080Z,4.20
2019-05-07T11:44:37.096Z,5.00
2019-05-07T11:47:24.455Z,5.57
2019-05-07T11:50:11.963Z,4.87
2019-05-07T11:52:45.573Z,6.23
2019-05-07T11:55:14.785Z,5.23
2019-05-07T11:57:44.506Z,5.80
2019-05-07T12:00:23.865Z,5.17
2019-05-07T12:02:52.992Z,4.93
2019-05-07T12:05:22.690Z,4.63
2019-05-07T12:07:51.977Z,4.70
2019-05-07T12:10:22.247Z,4.00
2019-05-07T12:12:52.110Z,5.33
2019-05-07T12:15:21.720Z,4.80
2019-05-07T12:17:52.135Z,3.63
2019-05-07T12:20:21.913Z,4.40
2019-05-07T12:22:52.143Z,4.47
2019-05-07T12:25:21.825Z,4.80
2019-05-07T12:27:52.459Z,4.60
2019-05-07T12:30:43.226Z,5.10
2019-05-07T12:33:22.656Z,4.57
2019-05-07T12:35:52.494Z,4.50
2019-05-07T12:38:22.055Z,4.13
2019-05-07T12:40:52.381Z,5.07
2019-05-07T12:43:21.568Z,3.70
2019-05-07T12:45:52.485Z,4.43
2019-05-07T12:48:21.834Z,3.97
2019-05-07T12:50:52.276Z,4.80
2019-05-07T12:53:42.419Z,3.93
2019-05-07T12:56:11.543Z,4.67
2019-05-07T12:58:40.584Z,3.30
2019-05-07T13:01:17.943Z,3.97
2019-05-07T13:04:04.643Z,4.70
2019-05-07T13:06:37.009Z,3.80
2019-05-07T13:09:06.968Z,4.67
2019-05-07T13:11:36.074Z,3.90
2019-05-07T13:14:05.178Z,4.30
2019-05-07T13:16:34.455Z,4.50
2019-05-07T13:19:03.509Z,4.63
2019-05-07T13:21:46.491Z,3.60
2019-05-07T13:24:03.339Z,3.57
2019-05-07T13:26:32.447Z,3.87
2019-05-07T13:29:02.494Z,4.00
2019-05-07T13:31:33.069Z,4.43
2019-05-07T13:34:03.227Z,4.43
2019-05-07T13:36:32.685Z,4.00
2019-05-07T13:39:13.181Z,3.93
2019-05-07T13:42:02.174Z,4.17
2019-05-07T13:44:52.752Z,3.60
2019-05-07T13:47:34.461Z,4.10
2019-05-07T13:50:03.632Z,3.73
2019-05-07T13:52:34.070Z,3.90
2019-05-07T13:55:03.172Z,3.43
2019-05-07T13:57:32.384Z,3.50
2019-05-07T14:00:02.404Z,3.63
2019-05-07T14:02:32.540Z,4.13
2019-05-07T14:05:01.959Z,4.30
2019-05-07T14:07:33.811Z,3.70
2019-05-07T14:10:03.027Z,8.50
2019-05-07T14:12:33.806Z,4.30
2019-05-07T14:15:02.971Z,6.10
2019-05-07T14:17:31.980Z,4.60
2019-05-07T14:20:01.856Z,4.73
2019-05-07T14:22:32.049Z,4.80
2019-05-07T14:25:01.160Z,4.23
2019-05-07T14:27:32.150Z,4.45
2019-05-07T14:30:02.717Z,5.57
2019-05-07T14:32:38.736Z,4.30
2019-05-07T14:35:28.545Z,5.10
2019-05-07T14:38:01.674Z,4.90
2019-05-07T14:40:32.371Z,4.90
2019-05-07T14:43:12.672Z,5.53
2019-05-07T14:45:42.172Z,5.07
2019-05-07T14:48:12.147Z,4.30
2019-05-07T14:50:42.002Z,4.60
2019-05-07T14:53:12.553Z,4.57
2019-05-07T14:55:41.926Z,4.40
2019-05-07T14:58:12.422Z,4.87
2019-05-07T15:00:42.740Z,4.60
2019-05-07T15:03:12.596Z,4.63
2019-05-07T15:05:42.384Z,4.53
2019-05-07T15:08:14.406Z,4.47
2019-05-07T15:10:42.613Z,4.57
2019-05-07T15:13:12.752Z,4.17
2019-05-07T15:15:42.122Z,4.43
2019-05-07T15:18:22.934Z,4.27
2019-05-07T15:20:52.562Z,4.50
2019-05-07T15:23:31.294Z,5.00
2019-05-07T15:26:04.286Z,4.67
2019-05-07T15:28:32.310Z,4.30
2019-05-07T15:31:12.570Z,4.17
2019-05-07T15:33:41.862Z,4.63
2019-05-07T15:36:11.993Z,4.60
2019-05-07T15:38:42.947Z,4.40
2019-05-07T15:41:12.337Z,4.83
2019-05-07T15:43:43.905Z,4.70
2019-05-07T15:46:12.353Z,4.70
2019-05-07T15:48:42.015Z,4.20
2019-05-07T15:51:11.924Z,4.55
2019-05-07T15:54:00.100Z,5.40
2019-05-07T15:56:29.173Z,4.40
2019-05-07T15:58:58.181Z,4.70
2019-05-07T16:01:27.192Z,4.93
2019-05-07T16:03:56.232Z,4.13
2019-05-07T16:06:25.238Z,4.00
2019-05-07T16:09:02.479Z,4.93
2019-05-07T16:11:32.565Z,3.90
2019-05-07T16:14:27.591Z,4.30
2019-05-07T16:17:06.891Z,4.03
2019-05-07T16:19:35.914Z,4.10
2019-05-07T16:22:09.737Z,4.13
2019-05-07T16:24:38.781Z,5.00
2019-05-07T16:27:07.793Z,4.80
2019-05-07T16:29:37.172Z,4.33
2019-05-07T16:32:06.224Z,4.10
2019-05-07T16:34:35.281Z,4.23
2019-05-07T16:37:07.342Z,3.87
2019-05-07T16:39:35.019Z,3.87
2019-05-07T16:42:04.113Z,3.97
2019-05-07T16:44:33.238Z,4.97
2019-05-07T16:47:02.809Z,4.50
2019-05-07T16:49:32.385Z,4.20
2019-05-07T16:52:02.725Z,4.70
2019-05-07T16:54:32.329Z,4.25
2019-05-07T16:57:23.977Z,4.00
2019-05-07T16:59:52.984Z,5.17
2019-05-07T17:02:25.732Z,4.47
2019-05-07T17:05:12.140Z,4.80
2019-05-07T17:07:46.324Z,4.53
2019-05-07T17:10:15.435Z,4.80
2019-05-07T17:12:45.884Z,4.17
2019-05-07T17:15:15.032Z,4.00
2019-05-07T17:17:44.093Z,4.30
2019-05-07T17:20:13.501Z,4.33
2019-05-07T17:22:42.875Z,4.43
2019-05-07T17:25:30.201Z,4.13
2019-05-07T17:27:59.268Z,4.60
2019-05-07T17:30:28.291Z,4.10
2019-05-07T17:32:57.335Z,3.90
2019-05-07T17:35:26.268Z,4.00
2019-05-07T17:38:06.123Z,3.70
2019-05-07T17:40:26.344Z,3.93
2019-05-07T17:42:55.661Z,3.80
2019-05-07T17:45:24.728Z,3.90
2019-05-07T17:47:53.729Z,4.37
2019-05-07T17:50:27.196Z,4.10
2019-05-07T17:52:56.221Z,4.63
2019-05-07T17:55:25.288Z,4.10
2019-05-07T17:57:54.523Z,4.40
2019-05-07T18:00:23.672Z,4.10
2019-05-07T18:03:10.703Z,4.70
2019-05-07T18:05:39.752Z,4.17
2019-05-07T18:08:08.813Z,4.70
2019-05-07T18:10:37.818Z,4.85
2019-05-07T18:13:08.165Z,4.10
2019-05-07T18:15:37.579Z,3.85
2019-05-07T18:18:07.788Z,3.73
2019-05-07T18:20:36.872Z,4.60
2019-05-07T18:23:08.699Z,3.93
2019-05-07T18:25:36.868Z,4.00
2019-05-07T18:28:05.867Z,4.70
2019-05-07T18:30:34.982Z,4.17
2019-05-07T18:33:33.568Z,4.00
2019-05-07T18:36:03.275Z,4.37
2019-05-07T18:38:33.158Z,4.05
2019-05-07T18:41:03.123Z,4.08
2019-05-07T18:43:33.389Z,4.40
2019-05-07T18:46:03.063Z,4.20
2019-05-07T18:48:33.168Z,4.10
2019-05-07T18:51:03.117Z,4.30
2019-05-07T18:53:33.156Z,4.80
2019-05-07T18:56:03.119Z,5.47
2019-05-07T18:58:33.205Z,5.08
2019-05-07T19:01:08.308Z,7.75
2019-05-07T19:03:37.311Z,6.47
2019-05-07T19:06:06.336Z,5.57
2019-05-07T19:08:35.718Z,4.83
2019-05-07T19:11:05.870Z,5.03
2019-05-07T19:13:34.960Z,4.80
2019-05-07T19:16:04.018Z,3.90
2019-05-07T19:18:33.175Z,4.17
2019-05-07T19:21:06.506Z,3.90
2019-05-07T19:23:34.018Z,4.00
2019-05-07T19:26:03.231Z,4.20
2019-05-07T19:28:33.915Z,4.65
2019-05-07T19:31:03.323Z,4.67
2019-05-07T19:33:33.414Z,4.10
2019-05-07T19:36:03.310Z,3.83
2019-05-07T19:38:33.344Z,4.10
2019-05-07T19:41:03.388Z,4.03
2019-05-07T19:43:35.942Z,3.50
2019-05-07T19:46:04.666Z,6.97
2019-05-07T19:48:33.629Z,8.97
2019-05-07T19:51:03.436Z,6.00
2019-05-07T19:53:33.333Z,4.43
2019-05-07T19:56:23.548Z,4.30
2019-05-07T19:58:52.868Z,3.60
2019-05-07T20:01:29.753Z,3.60
2019-05-07T20:03:58.816Z,4.20
2019-05-07T20:06:27.837Z,4.07
2019-05-07T20:09:09.059Z,4.00
2019-05-07T20:11:55.921Z,3.97
2019-05-07T20:14:24.966Z,5.27
2019-05-07T20:16:53.983Z,4.33
2019-05-07T20:19:23.194Z,3.97
2019-05-07T20:21:52.504Z,4.20
2019-05-07T20:24:22.039Z,4.33
2019-05-07T20:26:52.665Z,3.47
2019-05-07T20:29:22.863Z,4.00
2019-05-07T20:31:53.300Z,3.87
2019-05-07T20:34:22.434Z,3.87
2019-05-07T20:36:51.868Z,4.03
2019-05-07T20:39:23.139Z,3.60
2019-05-07T20:41:52.614Z,4.33
2019-05-07T20:44:21.863Z,3.50
2019-05-07T20:46:53.423Z,4.13
2019-05-07T20:49:22.582Z,3.80
2019-05-07T20:51:52.660Z,4.20
2019-05-07T20:54:46.539Z,4.53
2019-05-07T20:57:25.012Z,4.47
2019-05-07T20:59:54.015Z,4.20
2019-05-07T21:02:23.016Z,4.30
2019-05-07T21:04:52.104Z,5.00
2019-05-07T21:07:22.229Z,4.27
2019-05-07T21:09:52.973Z,4.70
2019-05-07T21:12:22.602Z,5.23
2019-05-07T21:14:52.481Z,4.70
2019-05-07T21:17:22.671Z,5.35
2019-05-07T21:19:51.928Z,4.53
2019-05-07T21:22:22.708Z,4.77
2019-05-07T21:24:53.255Z,4.80
2019-05-07T21:27:22.488Z,4.20
2019-05-07T21:29:52.781Z,5.07
2019-05-07T21:32:23.110Z,4.40
2019-05-07T21:34:52.806Z,4.67
2019-05-07T21:37:22.868Z,4.90
2019-05-07T21:39:53.122Z,4.10
2019-05-07T21:42:22.962Z,4.47
2019-05-07T21:44:52.756Z,4.20
2019-05-07T21:47:22.277Z,4.60
2019-05-07T21:49:54.875Z,4.10
2019-05-07T21:52:23.155Z,4.10
2019-05-07T21:55:12.760Z,4.63
2019-05-07T21:57:56.949Z,3.80
2019-05-07T22:00:43.724Z,4.20
2019-05-07T22:03:15.288Z,4.30
2019-05-07T22:05:44.471Z,5.20
2019-05-07T22:08:13.799Z,4.20
2019-05-07T22:10:42.847Z,5.40
2019-05-07T22:13:12.477Z,4.12
2019-05-07T22:15:42.266Z,4.40
2019-05-07T22:18:12.012Z,4.20
2019-05-07T22:20:42.668Z,4.00
2019-05-07T22:23:11.860Z,4.83
2019-05-07T22:25:42.194Z,4.93
2019-05-07T22:28:13.354Z,4.40
2019-05-07T22:30:53.296Z,4.07
2019-05-07T22:33:30.957Z,4.60
2019-05-07T22:36:01.780Z,4.70
2019-05-07T22:38:32.356Z,3.97
2019-05-07T22:41:02.176Z,4.83
2019-05-07T22:43:31.877Z,4.13
2019-05-07T22:46:01.098Z,4.20
2019-05-07T22:48:32.452Z,4.90
2019-05-07T22:51:02.740Z,3.80
2019-05-07T22:53:32.805Z,4.57
2019-05-07T22:56:03.186Z,3.57
2019-05-07T22:58:36.710Z,4.57
2019-05-07T23:01:08.032Z,4.43
2019-05-07T23:03:37.144Z,4.47
2019-05-07T23:06:09.039Z,4.87
2019-05-07T23:08:42.358Z,4.33
2019-05-07T23:11:12.225Z,4.63
2019-05-07T23:13:42.788Z,4.43
2019-05-07T23:16:12.720Z,5.87
2019-05-07T23:18:42.890Z,4.43
2019-05-07T23:21:12.218Z,4.67
2019-05-07T23:23:42.215Z,4.90
2019-05-07T23:26:14.306Z,5.10
2019-05-07T23:28:42.155Z,5.40
2019-05-07T23:31:12.053Z,5.20
2019-05-07T23:33:41.710Z,5.62
2019-05-07T23:36:12.936Z,5.27
2019-05-07T23:38:42.644Z,5.67
2019-05-07T23:41:19.754Z,5.77
2019-05-07T23:44:06.981Z,6.50
2019-05-07T23:46:35.979Z,6.03
2019-05-07T23:49:05.008Z,5.50
2019-05-07T23:51:34.986Z,5.10
2019-05-07T23:54:05.004Z,6.50
2019-05-07T23:56:34.777Z,5.78
2019-05-07T23:59:04.846Z,6.72
